createdAt,value
2022-10-29T00:01:59.886Z,3.80
2022-10-29T00:04:27.841Z,3.80
2022-10-29T00:06:55.672Z,4.03
2022-10-29T00:09:23.495Z,3.78
2022-10-29T00:11:51.339Z,3.30
2022-10-29T00:14:19.156Z,3.63
2022-10-29T00:16:48.363Z,3.60
2022-10-29T00:19:16.299Z,3.72
2022-10-29T00:21:44.124Z,3.42
2022-10-29T00:24:12.186Z,3.00
2022-10-29T00:26:39.970Z,3.97
2022-10-29T00:29:07.781Z,3.75
2022-10-29T00:31:35.779Z,3.28
2022-10-29T00:34:15.656Z,3.53
2022-10-29T00:36:43.421Z,3.67
2022-10-29T00:39:14.263Z,3.42
2022-10-29T00:41:42.173Z,3.83
2022-10-29T00:44:30.015Z,3.03
2022-10-29T00:47:03.636Z,3.88
2022-10-29T00:49:34.260Z,3.50
2022-10-29T00:52:04.134Z,3.58
2022-10-29T00:54:35.297Z,3.35
2022-10-29T00:57:07.725Z,3.60
2022-10-29T00:59:35.745Z,3.85
2022-10-29T01:02:03.813Z,3.30
2022-10-29T01:04:33.151Z,3.45
2022-10-29T01:07:01.532Z,3.33
2022-10-29T01:09:29.310Z,3.67
2022-10-29T01:12:08.379Z,3.17
2022-10-29T01:14:50.065Z,3.50
2022-10-29T01:17:29.349Z,3.10
2022-10-29T01:20:36.472Z,3.13
2022-10-29T01:23:23.859Z,3.63
2022-10-29T01:26:11.222Z,3.80
2022-10-29T01:28:56.308Z,3.63
2022-10-29T01:31:32.645Z,3.00
2022-10-29T01:34:06.679Z,3.25
2022-10-29T01:36:42.639Z,3.80
2022-10-29T01:39:19.491Z,3.05
2022-10-29T01:41:54.364Z,3.22
2022-10-29T01:44:32.079Z,3.50
2022-10-29T01:47:03.524Z,3.25
2022-10-29T01:49:37.773Z,3.05
2022-10-29T01:52:08.242Z,3.10
2022-10-29T01:54:40.300Z,3.53
2022-10-29T01:57:30.654Z,3.20
2022-10-29T02:00:01.306Z,3.25
2022-10-29T02:02:48.118Z,3.08
2022-10-29T02:05:27.569Z,3.28
2022-10-29T02:08:00.683Z,3.20
2022-10-29T02:10:36.985Z,3.22
2022-10-29T02:13:05.103Z,3.28
2022-10-29T02:15:36.711Z,3.50
2022-10-29T02:18:07.637Z,3.50
2022-10-29T02:20:36.165Z,3.20
2022-10-29T02:23:04.061Z,3.40
2022-10-29T02:25:32.228Z,3.58
2022-10-29T02:28:00.154Z,3.22
2022-10-29T02:30:27.992Z,3.80
2022-10-29T02:32:56.090Z,3.40
2022-10-29T02:35:25.490Z,3.75
2022-10-29T02:37:53.313Z,3.42
2022-10-29T02:40:21.140Z,3.17
2022-10-29T02:42:48.994Z,3.50
2022-10-29T02:45:17.095Z,3.75
2022-10-29T02:47:44.928Z,3.70
2022-10-29T02:50:12.805Z,3.70
2022-10-29T02:52:42.452Z,3.35
2022-10-29T02:55:10.766Z,3.30
2022-10-29T02:57:38.611Z,3.38
2022-10-29T03:00:07.336Z,3.45
2022-10-29T03:02:35.352Z,3.28
2022-10-29T03:05:03.445Z,3.47
2022-10-29T03:07:35.348Z,3.40
2022-10-29T03:10:04.765Z,3.67
2022-10-29T03:12:33.015Z,2.90
2022-10-29T03:15:00.858Z,3.40
2022-10-29T03:17:28.729Z,3.60
2022-10-29T03:19:56.505Z,3.40
2022-10-29T03:22:24.429Z,3.20
2022-10-29T03:24:52.197Z,2.95
2022-10-29T03:27:22.416Z,3.20
2022-10-29T03:29:50.195Z,3.00
2022-10-29T03:32:18.008Z,2.70
2022-10-29T03:34:45.794Z,3.08
2022-10-29T03:37:14.088Z,3.15
2022-10-29T03:39:41.920Z,3.10
2022-10-29T03:42:09.689Z,3.20
2022-10-29T03:44:38.847Z,3.58
2022-10-29T03:47:08.884Z,3.38
2022-10-29T03:49:36.698Z,3.30
2022-10-29T03:52:04.787Z,3.42
2022-10-29T03:54:32.589Z,3.00
2022-10-29T03:57:00.459Z,3.13
2022-10-29T03:59:30.572Z,3.58
2022-10-29T04:01:59.866Z,3.13
2022-10-29T04:04:27.765Z,3.50
2022-10-29T04:06:55.577Z,3.63
2022-10-29T04:09:23.369Z,3.25
2022-10-29T04:11:51.195Z,3.22
2022-10-29T04:14:19.023Z,3.17
2022-10-29T04:16:46.815Z,3.15
2022-10-29T04:19:15.983Z,3.50
2022-10-29T04:24:12.280Z,3.40
2022-10-29T04:30:08.661Z,3.00
2022-10-29T04:32:36.501Z,3.40
2022-10-29T04:35:06.537Z,3.40
2022-10-29T04:37:34.363Z,3.08
2022-10-29T04:40:02.220Z,2.97
2022-10-29T04:42:30.070Z,3.33
2022-10-29T04:44:57.917Z,3.35
2022-10-29T04:47:25.780Z,3.30
2022-10-29T04:49:53.574Z,3.00
2022-10-29T04:52:22.697Z,3.50
2022-10-29T04:54:50.560Z,3.33
2022-10-29T04:57:18.360Z,2.90
2022-10-29T04:59:46.145Z,3.17
2022-10-29T05:02:13.933Z,3.45
2022-10-29T05:04:41.817Z,2.97
2022-10-29T05:07:09.654Z,3.13
2022-10-29T05:09:38.958Z,3.25
2022-10-29T05:12:08.751Z,3.50
2022-10-29T05:14:36.577Z,3.30
2022-10-29T05:17:04.582Z,2.70
2022-10-29T05:19:32.423Z,3.35
2022-10-29T05:22:00.217Z,3.35
2022-10-29T05:24:28.017Z,3.65
2022-10-29T05:26:57.447Z,3.20
2022-10-29T05:29:25.281Z,3.30
2022-10-29T05:31:54.631Z,3.10
2022-10-29T05:34:22.481Z,3.35
2022-10-29T05:36:50.437Z,3.47
2022-10-29T05:39:18.345Z,3.45
2022-10-29T05:41:47.386Z,3.38
2022-10-29T05:44:16.560Z,3.28
2022-10-29T05:46:44.405Z,2.90
2022-10-29T05:49:13.525Z,3.10
2022-10-29T05:51:41.363Z,3.30
2022-10-29T05:54:09.176Z,3.20
2022-10-29T05:56:36.984Z,3.10
2022-10-29T05:59:04.765Z,3.05
2022-10-29T06:01:34.095Z,2.90
2022-10-29T06:04:02.219Z,3.80
2022-10-29T06:06:31.143Z,3.58
2022-10-29T06:08:59.017Z,3.67
2022-10-29T06:11:26.815Z,3.42
2022-10-29T06:13:56.100Z,3.58
2022-10-29T06:16:24.262Z,3.45
2022-10-29T06:18:53.380Z,3.15
2022-10-29T06:21:21.378Z,3.38
2022-10-29T06:23:50.658Z,3.67
2022-10-29T06:26:18.436Z,3.58
2022-10-29T06:28:46.324Z,3.55
2022-10-29T06:31:14.124Z,3.42
2022-10-29T06:33:41.902Z,3.65
2022-10-29T06:36:11.274Z,3.92
2022-10-29T06:38:39.130Z,3.60
2022-10-29T06:41:07.264Z,3.92
2022-10-29T06:43:35.078Z,3.88
2022-10-29T06:46:02.909Z,4.07
2022-10-29T06:48:30.823Z,3.88
2022-10-29T06:51:00.192Z,3.80
2022-10-29T06:53:29.554Z,3.58
2022-10-29T06:55:57.359Z,3.67
2022-10-29T06:58:25.141Z,3.60
2022-10-29T07:00:53.004Z,3.40
2022-10-29T07:03:21.834Z,3.13
2022-10-29T07:05:56.554Z,3.42
2022-10-29T07:08:24.382Z,3.53
2022-10-29T07:10:54.875Z,3.25
2022-10-29T07:13:22.790Z,3.53
2022-10-29T07:15:50.658Z,3.63
2022-10-29T07:18:19.207Z,3.13
2022-10-29T07:20:47.276Z,3.33
2022-10-29T07:23:15.322Z,3.20
2022-10-29T07:25:43.443Z,3.33
2022-10-29T07:28:16.268Z,3.60
2022-10-29T07:30:45.079Z,3.28
2022-10-29T07:33:13.026Z,3.20
2022-10-29T07:35:40.824Z,3.50
2022-10-29T07:38:11.220Z,3.65
2022-10-29T07:40:40.597Z,4.00
2022-10-29T07:43:09.764Z,3.65
2022-10-29T07:45:39.041Z,3.45
2022-10-29T07:48:08.750Z,3.92
2022-10-29T07:50:37.132Z,3.72
2022-10-29T07:53:06.488Z,3.90
2022-10-29T07:55:34.574Z,3.83
2022-10-29T07:58:04.042Z,4.10
2022-10-29T08:00:33.707Z,3.20
2022-10-29T08:03:02.901Z,3.88
2022-10-29T08:05:31.719Z,3.72
2022-10-29T08:08:00.126Z,3.38
2022-10-29T08:10:29.220Z,3.33
2022-10-29T08:12:58.946Z,3.58
2022-10-29T08:15:28.173Z,3.70
2022-10-29T08:17:56.485Z,3.47
2022-10-29T08:20:27.742Z,4.05
2022-10-29T08:22:56.019Z,4.00
2022-10-29T08:25:24.203Z,4.03
2022-10-29T08:28:00.313Z,3.60
2022-10-29T08:30:28.845Z,3.67
2022-10-29T08:32:56.804Z,3.15
2022-10-29T08:35:26.392Z,3.72
2022-10-29T08:37:54.500Z,3.78
2022-10-29T08:40:30.339Z,3.70
2022-10-29T08:43:36.710Z,3.15
2022-10-29T08:46:05.069Z,3.65
2022-10-29T08:48:46.399Z,3.35
2022-10-29T08:51:21.373Z,3.47
2022-10-29T08:54:17.048Z,3.53
2022-10-29T08:56:44.678Z,3.70
2022-10-29T08:59:15.983Z,3.97
2022-10-29T09:01:44.316Z,4.28
2022-10-29T09:04:24.353Z,4.13
2022-10-29T09:07:09.935Z,4.15
2022-10-29T09:09:42.813Z,4.68
2022-10-29T09:12:34.802Z,4.93
2022-10-29T09:15:25.969Z,4.00
2022-10-29T09:18:12.586Z,3.85
2022-10-29T09:20:50.891Z,4.15
2022-10-29T09:23:29.795Z,4.00
2022-10-29T09:26:03.299Z,3.90
2022-10-29T09:28:45.020Z,3.80
2022-10-29T09:31:28.473Z,4.13
2022-10-29T09:34:02.982Z,3.80
2022-10-29T09:36:31.766Z,3.67
2022-10-29T09:39:05.438Z,3.90
2022-10-29T09:41:35.322Z,4.43
2022-10-29T09:44:12.820Z,4.30
2022-10-29T09:46:49.189Z,6.57
2022-10-29T09:49:30.166Z,7.95
2022-10-29T09:52:03.058Z,8.52
2022-10-29T09:54:33.378Z,9.25
2022-10-29T09:57:03.589Z,9.50
2022-10-29T09:59:36.296Z,8.98
2022-10-29T10:02:12.405Z,9.93
2022-10-29T10:04:46.338Z,9.93
2022-10-29T10:07:19.495Z,9.30
2022-10-29T10:09:57.304Z,10.70
2022-10-29T10:12:27.598Z,9.57
2022-10-29T10:15:21.015Z,10.13
2022-10-29T10:18:03.461Z,10.23
2022-10-29T10:20:35.175Z,10.30
2022-10-29T10:23:04.318Z,11.10
2022-10-29T10:25:39.276Z,10.60
2022-10-29T10:28:22.042Z,9.82
2022-10-29T10:31:08.844Z,10.95
2022-10-29T10:33:44.441Z,11.27
2022-10-29T10:36:12.394Z,10.07
2022-10-29T10:38:42.729Z,10.10
2022-10-29T10:41:13.826Z,10.48
2022-10-29T10:43:45.008Z,11.07
2022-10-29T10:46:18.571Z,10.25
2022-10-29T10:48:56.999Z,10.00
2022-10-29T10:51:27.376Z,10.20
2022-10-29T10:53:55.370Z,10.45
2022-10-29T10:56:24.622Z,9.32
2022-10-29T10:59:07.500Z,10.10
2022-10-29T11:01:39.391Z,9.93
2022-10-29T11:04:16.069Z,11.05
2022-10-29T11:06:47.470Z,10.52
2022-10-29T11:09:24.571Z,11.18
2022-10-29T11:12:00.642Z,10.38
2022-10-29T11:14:34.494Z,9.88
2022-10-29T11:17:04.565Z,10.55
2022-10-29T11:19:36.958Z,10.90
2022-10-29T11:22:13.107Z,10.32
2022-10-29T11:24:48.233Z,9.57
2022-10-29T11:27:35.386Z,10.82
2022-10-29T11:30:05.779Z,10.18
2022-10-29T11:32:45.847Z,9.68
2022-10-29T11:35:16.963Z,10.05
2022-10-29T11:37:51.464Z,10.18
2022-10-29T11:40:23.846Z,10.27
2022-10-29T11:42:53.055Z,10.32
2022-10-29T11:45:29.462Z,9.52
2022-10-29T11:48:19.120Z,9.60
2022-10-29T11:50:56.261Z,9.05
2022-10-29T11:53:36.665Z,10.40
2022-10-29T11:56:14.511Z,10.30
2022-10-29T11:58:49.369Z,10.87
2022-10-29T12:01:23.683Z,9.25
2022-10-29T12:04:15.792Z,10.05
2022-10-29T12:06:57.092Z,10.20
2022-10-29T12:09:43.880Z,9.75
2022-10-29T12:12:17.287Z,9.23
2022-10-29T12:14:52.004Z,10.15
2022-10-29T12:17:25.833Z,10.10
2022-10-29T12:20:01.868Z,10.17
2022-10-29T12:22:38.263Z,9.57
2022-10-29T12:25:25.255Z,9.60
2022-10-29T12:28:05.108Z,9.57
2022-10-29T12:30:40.288Z,9.50
2022-10-29T12:33:16.800Z,9.00
2022-10-29T12:35:50.574Z,9.55
2022-10-29T12:38:32.391Z,9.75
2022-10-29T12:41:04.739Z,8.07
2022-10-29T12:43:36.099Z,9.23
2022-10-29T12:46:20.769Z,9.05
2022-10-29T12:48:59.344Z,9.18
2022-10-29T12:51:37.275Z,8.40
2022-10-29T12:54:23.198Z,9.50
2022-10-29T12:56:51.209Z,8.60
2022-10-29T12:59:30.517Z,8.57
2022-10-29T13:02:20.856Z,8.93
2022-10-29T13:05:18.448Z,8.80
2022-10-29T13:08:18.238Z,9.88
2022-10-29T13:10:51.997Z,8.50
2022-10-29T13:13:23.591Z,8.23
2022-10-29T13:16:01.572Z,8.60
2022-10-29T13:18:43.835Z,8.00
2022-10-29T13:21:11.792Z,9.00
2022-10-29T13:23:39.693Z,9.15
2022-10-29T13:26:08.320Z,8.93
2022-10-29T13:28:53.390Z,8.23
2022-10-29T13:32:03.616Z,10.07
2022-10-29T13:34:54.458Z,8.43
2022-10-29T13:37:50.697Z,8.35
2022-10-29T13:41:01.468Z,8.38
2022-10-29T13:43:30.223Z,8.10
2022-10-29T13:46:42.571Z,8.30
2022-10-29T13:49:16.593Z,8.05
2022-10-29T13:51:52.515Z,8.43
2022-10-29T13:56:59.287Z,8.50
2022-10-29T13:59:37.321Z,8.45
2022-10-29T14:02:26.984Z,8.32
2022-10-29T14:05:00.324Z,8.40
2022-10-29T14:07:38.967Z,7.45
2022-10-29T14:10:17.766Z,7.70
2022-10-29T14:12:47.313Z,7.45
2022-10-29T14:15:16.467Z,7.72
2022-10-29T14:17:44.309Z,7.53
2022-10-29T14:20:23.956Z,8.00
2022-10-29T14:22:53.223Z,6.57
2022-10-29T14:25:35.609Z,7.45
2022-10-29T14:28:25.479Z,6.72
2022-10-29T14:31:02.364Z,7.13
2022-10-29T14:33:32.295Z,6.53
2022-10-29T14:36:08.932Z,5.93
2022-10-29T14:38:43.563Z,5.97
2022-10-29T14:41:11.971Z,5.53
2022-10-29T14:43:40.780Z,5.55
2022-10-29T14:46:24.531Z,5.50
2022-10-29T14:49:02.014Z,5.55
2022-10-29T14:51:34.221Z,5.63
2022-10-29T14:54:04.628Z,5.75
2022-10-29T14:56:36.008Z,6.28
2022-10-29T14:59:14.400Z,6.55
2022-10-29T15:01:56.781Z,6.68
2022-10-29T15:04:30.376Z,7.80
2022-10-29T15:07:17.653Z,7.18
2022-10-29T15:09:48.214Z,7.85
2022-10-29T15:12:25.080Z,8.77
2022-10-29T15:14:53.874Z,7.15
2022-10-29T15:17:24.471Z,7.85
2022-10-29T15:19:55.244Z,8.40
2022-10-29T15:22:27.500Z,8.52
2022-10-29T15:25:00.634Z,9.48
2022-10-29T15:27:28.649Z,9.23
2022-10-29T15:29:58.916Z,9.45
2022-10-29T15:32:31.428Z,7.95
2022-10-29T15:35:03.052Z,8.05
2022-10-29T15:37:42.912Z,8.75
2022-10-29T15:40:15.944Z,8.07
2022-10-29T15:42:45.342Z,8.35
2022-10-29T15:45:21.380Z,8.85
2022-10-29T15:47:50.727Z,7.95
2022-10-29T15:50:22.999Z,7.60
2022-10-29T15:52:56.827Z,8.32
2022-10-29T15:55:29.006Z,7.18
2022-10-29T15:58:03.174Z,7.18
2022-10-29T16:00:32.163Z,7.28
2022-10-29T16:03:07.617Z,7.18
2022-10-29T16:05:36.079Z,6.55
2022-10-29T16:08:04.690Z,7.05
2022-10-29T16:10:35.932Z,7.38
2022-10-29T16:13:06.003Z,7.75
2022-10-29T16:15:35.204Z,7.03
2022-10-29T16:18:04.861Z,6.55
2022-10-29T16:20:33.904Z,6.68
2022-10-29T16:23:02.090Z,7.03
2022-10-29T16:25:32.540Z,6.80
2022-10-29T16:28:02.504Z,6.32
2022-10-29T16:30:30.946Z,6.85
2022-10-29T16:33:00.261Z,6.13
2022-10-29T16:35:30.762Z,6.40
2022-10-29T16:37:59.254Z,6.45
2022-10-29T16:40:30.015Z,6.38
2022-10-29T16:42:59.265Z,5.82
2022-10-29T16:45:31.464Z,6.30
2022-10-29T16:48:00.221Z,6.15
2022-10-29T16:50:30.565Z,5.40
2022-10-29T16:53:00.142Z,6.22
2022-10-29T16:55:28.702Z,5.65
2022-10-29T16:57:57.444Z,5.43
2022-10-29T17:00:27.175Z,6.05
2022-10-29T17:02:57.449Z,5.85
2022-10-29T17:05:28.570Z,5.90
2022-10-29T17:07:56.744Z,5.85
2022-10-29T17:10:25.115Z,6.10
2022-10-29T17:12:55.237Z,5.65
2022-10-29T17:15:23.646Z,5.85
2022-10-29T17:17:54.090Z,5.63
2022-10-29T17:20:26.140Z,5.70
2022-10-29T17:22:54.791Z,5.72
2022-10-29T17:25:25.347Z,5.78
2022-10-29T17:27:53.692Z,5.50
2022-10-29T17:30:24.053Z,5.10
2022-10-29T17:32:52.061Z,5.72
2022-10-29T17:35:20.044Z,5.38
2022-10-29T17:37:50.165Z,5.43
2022-10-29T17:40:18.216Z,5.55
2022-10-29T17:42:46.396Z,5.70
2022-10-29T17:45:20.386Z,5.45
2022-10-29T17:47:48.362Z,5.25
2022-10-29T17:50:16.467Z,5.88
2022-10-29T17:52:44.665Z,5.63
2022-10-29T17:55:17.264Z,5.38
2022-10-29T17:57:45.535Z,5.43
2022-10-29T18:00:14.668Z,5.60
2022-10-29T18:02:44.703Z,5.65
2022-10-29T18:05:12.803Z,6.25
2022-10-29T18:07:43.311Z,5.43
2022-10-29T18:10:16.973Z,5.38
2022-10-29T18:12:45.236Z,4.97
2022-10-29T18:15:16.194Z,5.50
2022-10-29T18:17:44.247Z,5.72
2022-10-29T18:20:13.588Z,5.40
2022-10-29T18:22:41.810Z,5.72
2022-10-29T18:25:10.798Z,5.43
2022-10-29T18:27:42.901Z,5.35
2022-10-29T18:30:12.279Z,5.45
2022-10-29T18:32:40.362Z,5.40
2022-10-29T18:35:09.594Z,5.68
2022-10-29T18:37:37.652Z,5.35
2022-10-29T18:40:06.572Z,5.25
2022-10-29T18:42:34.588Z,4.82
2022-10-29T18:45:04.143Z,5.40
2022-10-29T18:47:32.450Z,5.03
2022-10-29T18:50:00.984Z,4.88
2022-10-29T18:52:29.302Z,5.00
2022-10-29T18:54:58.737Z,5.50
2022-10-29T18:57:27.217Z,5.00
2022-10-29T18:59:55.251Z,5.18
2022-10-29T19:02:24.968Z,5.40
2022-10-29T19:04:58.076Z,5.43
2022-10-29T19:07:27.225Z,5.50
2022-10-29T19:09:55.451Z,5.20
2022-10-29T19:12:23.787Z,4.90
2022-10-29T19:14:53.248Z,5.10
2022-10-29T19:17:25.007Z,5.22
2022-10-29T19:19:56.131Z,4.70
2022-10-29T19:22:24.174Z,5.18
2022-10-29T19:24:53.833Z,5.78
2022-10-29T19:27:24.017Z,5.07
2022-10-29T19:29:53.597Z,5.22
2022-10-29T19:32:23.409Z,5.75
2022-10-29T19:34:51.781Z,5.25
2022-10-29T19:37:23.675Z,5.65
2022-10-29T19:39:52.002Z,5.72
2022-10-29T19:42:20.418Z,5.35
2022-10-29T19:53:20.134Z,5.50
2022-10-29T19:55:50.540Z,6.00
2022-10-29T19:58:18.916Z,5.50
2022-10-29T20:00:47.404Z,5.55
2022-10-29T20:03:16.972Z,5.95
2022-10-29T20:05:46.464Z,6.30
2022-10-29T20:08:16.271Z,5.82
2022-10-29T20:10:46.997Z,5.43
2022-10-29T20:13:15.199Z,5.55
2022-10-29T20:15:43.481Z,6.75
2022-10-29T20:18:11.616Z,5.93
2022-10-29T20:20:41.024Z,5.75
2022-10-29T20:23:11.243Z,5.93
2022-10-29T20:25:41.998Z,6.15
2022-10-29T20:28:11.856Z,6.18
2022-10-29T20:30:39.918Z,6.05
2022-10-29T20:33:08.559Z,5.85
2022-10-29T20:35:37.034Z,6.07
2022-10-29T20:38:05.895Z,6.30
2022-10-29T20:40:33.898Z,5.78
2022-10-29T20:43:01.863Z,6.13
2022-10-29T20:45:32.015Z,6.35
2022-10-29T20:48:03.141Z,6.05
2022-10-29T20:50:31.139Z,5.93
2022-10-29T20:52:59.294Z,6.10
2022-10-29T20:55:27.598Z,5.90
2022-10-29T20:57:55.970Z,6.20
2022-10-29T21:00:24.244Z,5.82
2022-10-29T21:02:54.276Z,5.90
2022-10-29T21:05:22.185Z,6.68
2022-10-29T21:07:50.386Z,6.35
2022-10-29T21:10:20.151Z,6.15
2022-10-29T21:12:48.505Z,6.40
2022-10-29T21:15:16.557Z,6.20
2022-10-29T21:17:44.733Z,5.90
2022-10-29T21:20:14.238Z,5.50
2022-10-29T21:22:42.264Z,6.80
2022-10-29T21:25:11.241Z,5.72
2022-10-29T21:27:39.379Z,6.25
2022-10-29T21:30:08.817Z,6.65
2022-10-29T21:32:36.732Z,6.10
2022-10-29T21:35:05.121Z,5.82
2022-10-29T21:37:34.951Z,6.65
2022-10-29T21:40:06.045Z,6.32
2022-10-29T21:42:34.601Z,5.90
2022-10-29T21:45:02.646Z,6.50
2022-10-29T21:47:30.614Z,6.05
2022-10-29T21:49:58.819Z,5.72
2022-10-29T21:52:27.118Z,6.38
2022-10-29T21:54:56.357Z,6.50
2022-10-29T21:57:24.462Z,6.40
2022-10-29T21:59:52.579Z,6.57
2022-10-29T22:02:21.083Z,6.15
2022-10-29T22:04:49.170Z,5.97
2022-10-29T22:07:17.136Z,6.47
2022-10-29T22:09:45.244Z,5.93
2022-10-29T22:12:14.808Z,6.43
2022-10-29T22:14:42.913Z,6.07
2022-10-29T22:17:13.298Z,6.57
2022-10-29T22:19:41.418Z,5.90
2022-10-29T22:22:09.376Z,6.57
2022-10-29T22:24:37.601Z,5.72
2022-10-29T22:27:06.207Z,5.82
2022-10-29T22:29:35.754Z,6.05
2022-10-29T22:32:05.613Z,6.40
2022-10-29T22:34:33.594Z,5.93
2022-10-29T22:37:01.701Z,5.72
2022-10-29T22:39:30.085Z,5.78
2022-10-29T22:41:58.051Z,5.60
2022-10-29T22:44:26.034Z,5.75
2022-10-29T22:46:55.783Z,5.30
2022-10-29T22:49:24.584Z,5.20
2022-10-29T22:51:57.142Z,6.43
2022-10-29T22:54:28.410Z,5.22
2022-10-29T22:56:56.439Z,5.53
2022-10-29T22:59:24.516Z,5.25
2022-10-29T23:01:52.598Z,5.50
2022-10-29T23:04:22.710Z,5.55
2022-10-29T23:06:50.802Z,5.95
2022-10-29T23:09:18.830Z,5.60
2022-10-29T23:11:46.887Z,5.25
2022-10-29T23:14:14.742Z,4.88
2022-10-29T23:16:42.819Z,5.60
2022-10-29T23:19:11.953Z,5.28
2022-10-29T23:21:43.743Z,4.78
2022-10-29T23:24:11.963Z,5.75
2022-10-29T23:26:39.832Z,5.45
2022-10-29T23:29:07.780Z,5.13
2022-10-29T23:31:35.627Z,5.00
2022-10-29T23:34:03.727Z,4.90
2022-10-29T23:36:31.672Z,5.47
2022-10-29T23:39:02.426Z,4.60
2022-10-29T23:41:31.971Z,4.72
2022-10-29T23:44:00.326Z,5.60
2022-10-29T23:46:28.315Z,5.05
2022-10-29T23:48:56.574Z,5.20
2022-10-29T23:51:24.751Z,5.05
2022-10-29T23:53:56.463Z,5.20
2022-10-29T23:56:28.438Z,4.93
2022-10-29T23:59:03.661Z,4.95
